createdAt,value
2019-02-21T00:00:26.620Z,87.95
2019-02-21T00:01:36.567Z,88.62
2019-02-21T00:02:46.528Z,88.53
2019-02-21T00:03:56.459Z,88.24
2019-02-21T00:05:06.163Z,88.05
2019-02-21T00:06:16.125Z,88.62
2019-02-21T00:07:26.062Z,87.86
2019-02-21T00:08:35.760Z,88.24
2019-02-21T00:09:45.458Z,88.62
2019-02-21T00:10:55.153Z,88.43
2019-02-21T00:12:04.607Z,88.15
2019-02-21T00:13:14.056Z,88.62
2019-02-21T00:14:23.999Z,88.62
2019-02-21T00:15:33.461Z,88.81
2019-02-21T00:16:43.420Z,88.81
2019-02-21T00:17:52.862Z,88.71
2019-02-21T00:19:02.807Z,88.34
2019-02-21T00:20:12.798Z,88.53
2019-02-21T00:21:22.744Z,88.9
2019-02-21T00:22:32.428Z,88.62
2019-02-21T00:23:42.384Z,88.9
2019-02-21T00:24:52.342Z,88.9
2019-02-21T00:26:02.299Z,89.05
2019-02-21T00:27:12.245Z,89.24
2019-02-21T00:28:21.734Z,89.24
2019-02-21T00:29:31.684Z,88.86
2019-02-21T00:30:41.371Z,89.24
2019-02-21T00:31:50.872Z,88.86
2019-02-21T00:33:00.818Z,89.05
2019-02-21T00:34:10.503Z,89.33
2019-02-21T00:35:20.444Z,89.05
2019-02-21T00:36:30.124Z,89.24
2019-02-21T00:37:40.068Z,88.86
2019-02-21T00:38:49.784Z,88.86
2019-02-21T00:39:59.232Z,88.86
2019-02-21T00:41:09.162Z,88.57
2019-02-21T00:42:19.099Z,88.57
2019-02-21T00:43:29.043Z,88.76
2019-02-21T00:44:38.741Z,88.57
2019-02-21T00:45:48.690Z,88.48
2019-02-21T00:46:58.633Z,88.62
2019-02-21T00:48:08.348Z,88.76
2019-02-21T00:49:18.288Z,88.76
2019-02-21T00:50:28.240Z,88.81
2019-02-21T00:51:38.178Z,88.57
2019-02-21T00:52:48.106Z,88.76
2019-02-21T00:53:58.045Z,88.62
2019-02-21T00:55:08.045Z,88.81
2019-02-21T00:56:17.840Z,88.76
2019-02-21T00:57:27.544Z,88.57
2019-02-21T00:58:37.248Z,88.76
2019-02-21T00:59:47.175Z,88.01
2019-02-21T01:00:58.375Z,88.29
2019-02-21T01:02:08.059Z,88.48
2019-02-21T01:03:17.752Z,88.57
2019-02-21T01:04:27.476Z,88.48
2019-02-21T01:05:37.413Z,88.57
2019-02-21T01:06:46.955Z,88.57
2019-02-21T01:07:56.427Z,88.67
2019-02-21T01:09:06.121Z,88.48
2019-02-21T01:10:16.058Z,88.57
2019-02-21T01:11:25.742Z,88.57
2019-02-21T01:12:35.207Z,88.76
2019-02-21T01:13:44.898Z,88.48
2019-02-21T01:14:54.581Z,88.57
2019-02-21T01:16:04.301Z,88.86
2019-02-21T01:17:14.240Z,88.86
2019-02-21T01:18:24.192Z,88.86
2019-02-21T01:19:34.147Z,88.76
2019-02-21T01:20:44.090Z,88.57
2019-02-21T01:21:53.795Z,88.48
2019-02-21T01:23:03.524Z,88.57
2019-02-21T01:24:13.493Z,89.05
2019-02-21T01:25:23.479Z,89.05
2019-02-21T01:26:33.428Z,88.95
2019-02-21T01:27:43.404Z,89.33
2019-02-21T01:28:53.384Z,89.14
2019-02-21T01:30:03.066Z,89.24
2019-02-21T01:31:12.799Z,89.05
2019-02-21T01:32:22.742Z,89.9
2019-02-21T01:33:32.691Z,89.9
2019-02-21T01:34:42.144Z,89.24
2019-02-21T01:35:52.080Z,89.9
2019-02-21T01:37:01.758Z,89.24
2019-02-21T01:38:11.480Z,89.53
2019-02-21T01:39:21.221Z,89.14
2019-02-21T01:40:31.171Z,89.81
2019-02-21T01:41:40.888Z,89.05
2019-02-21T01:42:50.827Z,89.24
2019-02-21T01:44:00.780Z,89.33
2019-02-21T01:45:12.282Z,89.33
2019-02-21T01:46:22.477Z,88.86
2019-02-21T01:47:32.425Z,89.05
2019-02-21T01:48:42.358Z,89.33
2019-02-21T01:49:52.109Z,89.24
2019-02-21T01:51:02.151Z,89.05
2019-02-21T01:52:11.595Z,89.14
2019-02-21T01:53:21.292Z,89.43
2019-02-21T01:54:31.241Z,89.24
2019-02-21T01:55:41.184Z,89.43
2019-02-21T01:56:51.123Z,89.33
2019-02-21T01:58:01.053Z,89.43
2019-02-21T01:59:10.747Z,88.86
2019-02-21T02:00:20.438Z,89.05
2019-02-21T02:01:30.387Z,89.24
2019-02-21T02:02:40.067Z,89.43
2019-02-21T02:03:50.022Z,89.14
2019-02-21T02:04:59.704Z,89.24
2019-02-21T02:06:09.441Z,89.24
2019-02-21T02:07:19.135Z,89.33
2019-02-21T02:08:28.582Z,89.81
2019-02-21T02:09:38.268Z,89.81
2019-02-21T02:10:48.199Z,89.9
2019-02-21T02:11:57.886Z,89.81
2019-02-21T02:13:07.828Z,89.53
2019-02-21T02:14:31.305Z,89.72
2019-02-21T02:15:41.255Z,89.72
2019-02-21T02:16:51.218Z,89.72
2019-02-21T02:18:01.186Z,89.53
2019-02-21T02:19:10.867Z,89.62
2019-02-21T02:20:20.559Z,89.72
2019-02-21T02:21:30.508Z,89.53
2019-02-21T02:22:40.585Z,89.53
2019-02-21T02:23:50.023Z,89.72
2019-02-21T02:24:59.965Z,89.43
2019-02-21T02:26:09.905Z,89.72
2019-02-21T02:27:19.853Z,89.62
2019-02-21T02:28:29.557Z,89.76
2019-02-21T02:29:38.999Z,89.72
2019-02-21T02:30:48.695Z,89.72
2019-02-21T02:31:58.396Z,89.67
2019-02-21T02:33:08.108Z,89.67
2019-02-21T02:34:17.392Z,89.53
2019-02-21T02:35:27.342Z,89.9
2019-02-21T02:36:37.304Z,89.76
2019-02-21T02:37:47.007Z,89.9
2019-02-21T02:38:56.981Z,89.09
2019-02-21T02:40:06.690Z,89.09
2019-02-21T02:41:16.408Z,89.28
2019-02-21T02:42:26.168Z,89.47
2019-02-21T02:43:36.110Z,89.76
2019-02-21T02:44:46.056Z,89.76
2019-02-21T02:45:56.005Z,89.9
2019-02-21T02:47:05.715Z,89.76
2019-02-21T02:48:15.661Z,89.9
2019-02-21T02:49:25.614Z,89.81
2019-02-21T02:50:35.341Z,89.72
2019-02-21T02:51:45.289Z,90
2019-02-21T02:52:55.217Z,90.09
2019-02-21T02:54:04.959Z,90.19
2019-02-21T02:55:14.919Z,90.28
2019-02-21T02:56:24.864Z,90.38
2019-02-21T02:57:34.322Z,90.47
2019-02-21T02:58:45.551Z,90.19
2019-02-21T02:59:55.758Z,90.09
2019-02-21T03:01:05.803Z,90.66
2019-02-21T03:02:15.525Z,89.9
2019-02-21T03:03:25.246Z,90.57
2019-02-21T03:04:35.329Z,90.09
2019-02-21T03:05:45.538Z,90.66
2019-02-21T03:06:54.986Z,90.47
2019-02-21T03:08:04.701Z,90.76
2019-02-21T03:09:14.653Z,90.95
2019-02-21T03:10:24.356Z,90.66
2019-02-21T03:11:34.325Z,90.66
2019-02-21T03:12:44.031Z,90.47
2019-02-21T03:13:53.747Z,90.66
2019-02-21T03:15:03.716Z,90.57
2019-02-21T03:16:13.517Z,90.38
2019-02-21T03:17:22.980Z,90.52
2019-02-21T03:18:32.938Z,90.28
2019-02-21T03:19:42.878Z,90.8
2019-02-21T03:20:52.581Z,90.66
2019-02-21T03:22:02.268Z,90.66
2019-02-21T03:23:12.230Z,90.33
2019-02-21T03:24:22.164Z,90.66
2019-02-21T03:25:32.112Z,90.71
2019-02-21T03:26:41.815Z,90.28
2019-02-21T03:27:51.517Z,91.09
2019-02-21T03:29:01.462Z,90.76
2019-02-21T03:30:14.869Z,90.71
2019-02-21T03:31:24.840Z,90.47
2019-02-21T03:32:34.966Z,90.8
2019-02-21T03:33:44.454Z,91.19
2019-02-21T03:34:54.474Z,90.99
2019-02-21T03:36:04.454Z,90.95
2019-02-21T03:37:14.291Z,90.8
2019-02-21T03:38:24.086Z,90.47
2019-02-21T03:39:37.911Z,90.95
2019-02-21T03:40:47.857Z,91.14
2019-02-21T03:41:57.778Z,91.56
2019-02-21T03:43:07.790Z,91.28
2019-02-21T03:44:17.749Z,91.09
2019-02-21T03:45:27.238Z,91.04
2019-02-21T03:46:36.919Z,91.14
2019-02-21T03:47:47.103Z,91.71
2019-02-21T03:48:56.296Z,91.89
2019-02-21T03:50:06.283Z,91.94
2019-02-21T03:51:16.252Z,92.75
2019-02-21T03:52:26.328Z,92.75
2019-02-21T03:53:36.260Z,92.28
2019-02-21T03:54:46.228Z,92.28
2019-02-21T03:55:56.164Z,92.66
2019-02-21T03:57:05.859Z,92.47
2019-02-21T03:58:15.824Z,92.75
2019-02-21T03:59:25.767Z,93.23
2019-02-21T04:00:35.713Z,93.13
2019-02-21T04:01:45.678Z,93.23
2019-02-21T04:03:07.669Z,93.8
2019-02-21T04:04:17.410Z,93.99
2019-02-21T04:05:27.376Z,93.99
2019-02-21T04:06:37.324Z,94.56
2019-02-21T04:07:46.758Z,94.84
2019-02-21T04:08:56.219Z,94.37
2019-02-21T04:10:05.672Z,94.46
2019-02-21T04:11:15.610Z,94.56
2019-02-21T04:12:25.612Z,94.37
2019-02-21T04:13:35.558Z,95.22
2019-02-21T04:14:45.019Z,94.46
2019-02-21T04:15:54.707Z,94.93
2019-02-21T04:17:04.408Z,95.31
2019-02-21T04:18:14.352Z,95.12
2019-02-21T04:19:24.060Z,95.51
2019-02-21T04:20:34.005Z,95.7
2019-02-21T04:21:43.957Z,95.7
2019-02-21T04:22:53.922Z,96.08
2019-02-21T04:24:03.972Z,95.7
2019-02-21T04:25:13.948Z,96.08
2019-02-21T04:26:23.893Z,95.89
2019-02-21T04:27:33.845Z,95.98
2019-02-21T04:28:45.741Z,96.08
2019-02-21T04:29:55.679Z,97.02
2019-02-21T04:31:05.716Z,96.55
2019-02-21T04:32:19.559Z,96.55
2019-02-21T04:33:29.565Z,96.64
2019-02-21T04:34:42.040Z,96.83
2019-02-21T04:35:52.029Z,97.78
2019-02-21T04:37:01.977Z,97.6
2019-02-21T04:38:11.930Z,97.97
2019-02-21T04:39:21.864Z,98.26
2019-02-21T04:40:31.864Z,98.35
2019-02-21T04:41:41.586Z,99.3
2019-02-21T04:42:51.560Z,99.4
2019-02-21T04:44:03.775Z,99.68
2019-02-21T04:45:13.743Z,99.77
2019-02-21T04:46:23.477Z,99.87
2019-02-21T04:47:33.194Z,99.77
2019-02-21T04:48:43.165Z,99.77
2019-02-21T04:49:53.120Z,99.68
2019-02-21T04:51:03.464Z,99.99
2019-02-21T04:52:13.479Z,99.99
2019-02-21T04:53:23.516Z,99.99
2019-02-21T04:54:33.465Z,99.99
2019-02-21T04:55:43.427Z,99.99
2019-02-21T04:56:53.121Z,99.99
2019-02-21T04:58:03.138Z,99.99
2019-02-21T04:59:12.591Z,99.99
2019-02-21T05:00:22.539Z,99.99
2019-02-21T05:01:32.501Z,99.99
2019-02-21T05:02:43.328Z,99.99
2019-02-21T05:03:53.282Z,99.99
2019-02-21T05:05:02.998Z,99.99
2019-02-21T05:06:13.164Z,99.99
2019-02-21T05:07:23.109Z,99.99
2019-02-21T05:08:32.823Z,99.99
2019-02-21T05:09:42.810Z,99.99
2019-02-21T05:11:04.944Z,99.99
2019-02-21T05:12:14.665Z,99.99
2019-02-21T05:13:24.608Z,99.99
2019-02-21T05:14:36.780Z,99.99
2019-02-21T05:15:46.776Z,99.99
2019-02-21T05:16:56.742Z,99.99
2019-02-21T05:18:08.394Z,99.99
2019-02-21T05:19:18.348Z,99.99
2019-02-21T05:20:28.039Z,99.99
2019-02-21T05:21:37.760Z,99.99
2019-02-21T05:22:47.707Z,99.99
2019-02-21T05:23:57.460Z,99.99
2019-02-21T05:25:07.166Z,99.99
2019-02-21T05:26:17.108Z,99.99
2019-02-21T05:27:27.077Z,99.99
2019-02-21T05:28:37.023Z,99.99
2019-02-21T05:29:48.893Z,99.99
2019-02-21T05:30:59.046Z,99.99
2019-02-21T05:32:08.748Z,99.99
2019-02-21T05:33:18.722Z,99.99
2019-02-21T05:34:28.687Z,99.99
2019-02-21T05:35:38.416Z,99.99
2019-02-21T05:36:48.111Z,99.99
2019-02-21T05:37:58.054Z,99.99
2019-02-21T05:39:10.649Z,99.99
2019-02-21T05:40:20.358Z,99.99
2019-02-21T05:41:31.386Z,99.99
2019-02-21T05:42:41.091Z,99.99
2019-02-21T05:43:50.303Z,99.99
2019-02-21T05:45:02.032Z,99.99
2019-02-21T05:46:13.805Z,99.99
2019-02-21T05:47:23.756Z,99.99
2019-02-21T05:48:33.452Z,99.99
2019-02-21T05:49:45.600Z,99.99
2019-02-21T05:50:55.319Z,99.99
2019-02-21T05:52:05.307Z,99.99
2019-02-21T05:53:15.022Z,99.99
2019-02-21T05:54:24.853Z,99.99
2019-02-21T05:55:34.820Z,99.99
2019-02-21T05:56:44.545Z,99.99
2019-02-21T05:57:54.492Z,99.99
2019-02-21T05:59:04.482Z,99.99
2019-02-21T06:00:14.435Z,99.99
2019-02-21T06:01:24.499Z,99.99
2019-02-21T06:02:34.198Z,99.99
2019-02-21T06:03:55.403Z,99.99
2019-02-21T06:05:05.350Z,99.99
2019-02-21T06:06:17.251Z,99.99
2019-02-21T06:07:27.106Z,99.99
2019-02-21T06:08:37.045Z,99.99
2019-02-21T06:09:49.397Z,99.99
2019-02-21T06:10:59.335Z,99.99
2019-02-21T06:12:09.463Z,99.99
2019-02-21T06:13:19.489Z,99.99
2019-02-21T06:14:29.201Z,99.99
2019-02-21T06:15:39.150Z,99.99
2019-02-21T06:16:48.846Z,99.99
2019-02-21T06:17:58.551Z,99.99
2019-02-21T06:19:08.498Z,99.99
2019-02-21T06:20:20.396Z,99.99
2019-02-21T06:21:30.113Z,99.99
2019-02-21T06:22:40.053Z,99.99
2019-02-21T06:23:51.698Z,99.99
2019-02-21T06:25:01.689Z,99.99
2019-02-21T06:26:11.804Z,99.99
2019-02-21T06:27:21.533Z,99.99
2019-02-21T06:28:31.492Z,99.99
2019-02-21T06:29:41.203Z,99.99
2019-02-21T06:30:51.157Z,99.99
2019-02-21T06:32:00.858Z,99.99
2019-02-21T06:33:21.535Z,99.99
2019-02-21T06:34:34.261Z,99.99
2019-02-21T06:35:43.953Z,99.99
2019-02-21T06:36:53.906Z,99.99
2019-02-21T06:38:03.605Z,99.99
2019-02-21T06:39:13.314Z,99.99
2019-02-21T06:40:23.019Z,99.99
2019-02-21T06:41:32.733Z,99.99
2019-02-21T06:42:45.491Z,99.99
2019-02-21T06:43:56.794Z,99.99
2019-02-21T06:45:06.918Z,99.99
2019-02-21T06:46:16.794Z,99.99
2019-02-21T06:47:26.769Z,99.99
2019-02-21T06:48:37.400Z,99.99
2019-02-21T06:49:47.345Z,99.99
2019-02-21T06:50:57.292Z,99.99
2019-02-21T06:52:07.265Z,99.99
2019-02-21T06:53:18.654Z,99.99
2019-02-21T06:54:28.358Z,99.99
2019-02-21T06:55:38.292Z,99.99
2019-02-21T06:56:48.237Z,99.99
2019-02-21T06:57:58.170Z,99.99
2019-02-21T06:59:07.861Z,99.99
2019-02-21T07:00:17.838Z,99.99
2019-02-21T07:01:31.628Z,99.99
2019-02-21T07:02:41.571Z,99.99
2019-02-21T07:03:51.516Z,99.99
2019-02-21T07:05:01.201Z,99.99
2019-02-21T07:06:10.907Z,99.99
2019-02-21T07:07:22.086Z,99.99
2019-02-21T07:08:31.812Z,99.99
2019-02-21T07:09:42.604Z,99.99
2019-02-21T07:10:52.367Z,99.99
2019-02-21T07:12:13.182Z,99.99
2019-02-21T07:13:29.238Z,99.99
2019-02-21T07:14:39.188Z,99.99
2019-02-21T07:15:49.133Z,99.99
2019-02-21T07:17:01.209Z,99.99
2019-02-21T07:18:13.694Z,99.99
2019-02-21T07:19:23.443Z,99.99
2019-02-21T07:20:33.449Z,99.99
2019-02-21T07:21:45.112Z,99.99
2019-02-21T07:22:54.870Z,99.99
2019-02-21T07:24:04.826Z,99.99
2019-02-21T07:25:14.535Z,99.99
2019-02-21T07:26:24.599Z,99.99
2019-02-21T07:27:34.563Z,99.99
2019-02-21T07:28:44.592Z,99.99
2019-02-21T07:29:54.614Z,99.99
2019-02-21T07:31:04.312Z,99.99
2019-02-21T07:32:14.284Z,99.99
2019-02-21T07:33:31.109Z,99.99
2019-02-21T07:34:41.082Z,99.99
2019-02-21T07:35:51.110Z,99.99
2019-02-21T07:37:00.874Z,99.99
2019-02-21T07:38:21.476Z,99.99
2019-02-21T07:39:38.581Z,99.99
2019-02-21T07:40:48.540Z,99.99
2019-02-21T07:41:58.012Z,99.99
2019-02-21T07:43:07.748Z,99.99
2019-02-21T07:44:20.151Z,99.99
2019-02-21T07:45:30.106Z,99.99
2019-02-21T07:46:41.256Z,99.99
2019-02-21T07:47:56.333Z,99.99
2019-02-21T07:49:05.792Z,99.99
2019-02-21T07:50:15.753Z,99.99
2019-02-21T07:51:28.385Z,99.99
2019-02-21T07:52:41.135Z,99.99
2019-02-21T07:53:51.094Z,99.99
2019-02-21T07:55:04.416Z,99.99
2019-02-21T07:56:15.398Z,99.99
2019-02-21T07:57:25.338Z,99.99
2019-02-21T07:58:34.803Z,99.99
2019-02-21T07:59:47.310Z,99.99
2019-02-21T08:00:57.280Z,99.99
2019-02-21T08:02:07.247Z,99.99
2019-02-21T08:03:16.448Z,99.99
2019-02-21T08:04:51.425Z,99.99
2019-02-21T08:06:00.880Z,99.99
2019-02-21T08:07:10.607Z,99.99
2019-02-21T08:08:21.587Z,99.99
2019-02-21T08:09:31.575Z,99.99
2019-02-21T08:10:41.284Z,99.99
2019-02-21T08:11:51.244Z,99.99
2019-02-21T08:13:01.205Z,99.99
2019-02-21T08:14:10.982Z,99.99
2019-02-21T08:15:23.704Z,99.99
2019-02-21T08:16:35.397Z,99.99
2019-02-21T08:17:45.368Z,99.99
2019-02-21T08:18:55.308Z,99.99
2019-02-21T08:20:11.114Z,99.99
2019-02-21T08:21:21.078Z,99.99
2019-02-21T08:22:30.697Z,99.99
2019-02-21T08:23:52.151Z,99.99
2019-02-21T08:25:04.505Z,99.99
2019-02-21T08:26:14.466Z,99.99
2019-02-21T08:27:25.468Z,99.99
2019-02-21T08:28:34.919Z,99.99
2019-02-21T08:29:44.627Z,99.99
2019-02-21T08:30:54.709Z,99.99
2019-02-21T08:32:05.850Z,99.99
2019-02-21T08:33:15.561Z,99.99
2019-02-21T08:34:25.525Z,99.99
2019-02-21T08:35:35.487Z,99.99
2019-02-21T08:36:45.502Z,99.99
2019-02-21T08:37:55.207Z,99.99
2019-02-21T08:39:05.162Z,99.99
2019-02-21T08:40:14.885Z,99.99
2019-02-21T08:41:25.732Z,99.99
2019-02-21T08:42:35.657Z,99.99
2019-02-21T08:43:45.104Z,99.99
2019-02-21T08:44:54.801Z,99.99
2019-02-21T08:46:04.756Z,99.99
2019-02-21T08:47:14.514Z,99.99
2019-02-21T08:48:23.980Z,99.99
2019-02-21T08:49:33.949Z,99.99
2019-02-21T08:50:43.923Z,99.99
2019-02-21T08:51:55.033Z,99.99
2019-02-21T08:53:04.993Z,99.99
2019-02-21T08:54:15.986Z,99.99
2019-02-21T08:55:25.728Z,99.99
2019-02-21T08:56:35.739Z,99.99
2019-02-21T08:57:45.449Z,99.99
2019-02-21T08:58:55.467Z,99.99
2019-02-21T09:00:05.203Z,99.99
2019-02-21T09:01:16.499Z,99.99
2019-02-21T09:02:26.241Z,99.99
2019-02-21T09:03:38.855Z,99.99
2019-02-21T09:04:48.623Z,99.99
2019-02-21T09:05:57.887Z,99.99
2019-02-21T09:07:07.985Z,99.99
2019-02-21T09:08:19.260Z,99.99
2019-02-21T09:09:42.620Z,99.99
2019-02-21T09:10:52.617Z,99.99
2019-02-21T09:12:02.614Z,99.99
2019-02-21T09:13:13.195Z,99.99
2019-02-21T09:14:22.912Z,99.99
2019-02-21T09:15:32.650Z,99.99
2019-02-21T09:16:41.896Z,99.99
2019-02-21T09:17:53.958Z,99.99
2019-02-21T09:19:04.116Z,99.99
2019-02-21T09:20:13.620Z,99.99
2019-02-21T09:21:23.571Z,99.99
2019-02-21T09:22:33.537Z,99.99
2019-02-21T09:23:43.038Z,99.99
2019-02-21T09:24:53.033Z,99.99
2019-02-21T09:26:05.467Z,99.99
2019-02-21T09:27:15.434Z,99.99
2019-02-21T09:28:25.410Z,99.99
2019-02-21T09:29:35.111Z,99.99
2019-02-21T09:30:44.915Z,99.99
2019-02-21T09:31:54.691Z,99.99
2019-02-21T09:33:04.648Z,99.99
2019-02-21T09:34:26.551Z,99.99
2019-02-21T09:35:36.269Z,99.99
2019-02-21T09:36:45.717Z,99.99
2019-02-21T09:37:55.691Z,99.99
2019-02-21T09:39:05.278Z,99.99
2019-02-21T09:40:15.253Z,99.99
2019-02-21T09:41:25.211Z,99.99
2019-02-21T09:42:36.371Z,99.99
2019-02-21T09:43:45.868Z,99.99
2019-02-21T09:44:58.599Z,99.99
2019-02-21T09:46:08.582Z,99.99
2019-02-21T09:47:18.529Z,99.99
2019-02-21T09:48:28.513Z,99.99
2019-02-21T09:49:38.502Z,99.99
2019-02-21T09:50:48.471Z,99.99
2019-02-21T09:51:58.445Z,99.99
2019-02-21T09:53:08.429Z,99.99
2019-02-21T09:54:19.062Z,99.99
2019-02-21T09:55:29.774Z,99.99
2019-02-21T09:56:39.386Z,99.99
2019-02-21T09:58:00.168Z,99.99
2019-02-21T09:59:10.149Z,99.99
2019-02-21T10:00:20.113Z,99.99
2019-02-21T10:01:29.876Z,99.99
2019-02-21T10:02:41.877Z,99.99
2019-02-21T10:03:52.086Z,99.99
2019-02-21T10:05:07.953Z,99.99
2019-02-21T10:06:17.913Z,99.99
2019-02-21T10:07:27.419Z,99.99
2019-02-21T10:08:40.049Z,99.99
2019-02-21T10:09:49.781Z,99.99
2019-02-21T10:11:00.778Z,99.99
2019-02-21T10:12:11.074Z,99.99
2019-02-21T10:13:20.827Z,99.99
2019-02-21T10:14:30.826Z,99.99
2019-02-21T10:15:40.785Z,99.99
2019-02-21T10:16:52.394Z,99.99
2019-02-21T10:18:01.887Z,99.99
2019-02-21T10:19:11.583Z,99.99
2019-02-21T10:20:21.521Z,99.99
2019-02-21T10:21:31.475Z,99.99
2019-02-21T10:22:41.421Z,99.99
2019-02-21T10:23:51.195Z,99.99
2019-02-21T10:25:02.125Z,99.99
2019-02-21T10:26:12.298Z,99.99
2019-02-21T10:27:21.768Z,99.99
2019-02-21T10:28:32.491Z,99.99
2019-02-21T10:29:42.631Z,99.99
2019-02-21T10:30:52.586Z,99.99
2019-02-21T10:32:02.525Z,99.99
2019-02-21T10:33:12.218Z,99.99
2019-02-21T10:34:24.300Z,99.99
2019-02-21T10:35:33.991Z,99.99
2019-02-21T10:36:43.437Z,99.99
2019-02-21T10:37:53.140Z,99.99
2019-02-21T10:39:02.906Z,99.99
2019-02-21T10:40:12.857Z,99.99
2019-02-21T10:41:22.822Z,99.99
2019-02-21T10:42:32.529Z,99.99
2019-02-21T10:43:42.255Z,99.99
2019-02-21T10:44:52.215Z,99.99
2019-02-21T10:46:02.179Z,99.99
2019-02-21T10:47:12.162Z,99.99
2019-02-21T10:48:22.326Z,99.99
2019-02-21T10:49:32.319Z,99.99
2019-02-21T10:50:42.288Z,99.99
2019-02-21T10:51:52.288Z,99.99
2019-02-21T10:53:02.019Z,99.99
2019-02-21T10:54:11.970Z,99.99
2019-02-21T10:55:21.966Z,99.99
2019-02-21T10:56:32.076Z,99.99
2019-02-21T10:57:42.054Z,99.99
2019-02-21T10:58:53.251Z,99.99
2019-02-21T11:00:02.954Z,99.99
2019-02-21T11:01:12.694Z,99.99
2019-02-21T11:02:22.394Z,99.99
2019-02-21T11:03:32.364Z,99.99
2019-02-21T11:04:54.301Z,99.99
2019-02-21T11:06:04.287Z,99.99
2019-02-21T11:07:14.264Z,99.99
2019-02-21T11:08:23.985Z,99.99
2019-02-21T11:09:33.973Z,99.99
2019-02-21T11:10:43.928Z,99.99
2019-02-21T11:11:53.900Z,99.99
2019-02-21T11:13:03.881Z,99.99
2019-02-21T11:14:13.847Z,99.99
2019-02-21T11:15:23.565Z,99.99
2019-02-21T11:16:33.411Z,99.99
2019-02-21T11:17:42.881Z,99.41
2019-02-21T11:18:52.883Z,99.03
2019-02-21T11:20:02.598Z,99.03
2019-02-21T11:21:12.571Z,98.55
2019-02-21T11:22:22.287Z,98.74
2019-02-21T11:23:31.985Z,98.65
2019-02-21T11:24:41.442Z,96.84
2019-02-21T11:25:51.394Z,97.79
2019-02-21T11:27:01.366Z,98.08
2019-02-21T11:28:11.087Z,96.41
2019-02-21T11:29:21.083Z,96.32
2019-02-21T11:30:30.855Z,95.84
2019-02-21T11:31:40.823Z,96.51
2019-02-21T11:32:50.518Z,94.51
2019-02-21T11:34:00.228Z,96.32
2019-02-21T11:35:10.209Z,94.22
2019-02-21T11:36:19.912Z,93.41
2019-02-21T11:37:29.860Z,93.65
2019-02-21T11:38:52.513Z,93.12
2019-02-21T11:40:05.301Z,92.55
2019-02-21T11:41:15.166Z,92.17
2019-02-21T11:42:24.876Z,92.36
2019-02-21T11:43:34.597Z,93.51
2019-02-21T11:44:44.559Z,92.84
2019-02-21T11:45:59.379Z,92.55
2019-02-21T11:47:09.459Z,92.55
2019-02-21T11:48:19.164Z,92.46
2019-02-21T11:49:29.119Z,92.13
2019-02-21T11:50:38.571Z,92.5
2019-02-21T11:51:48.284Z,92.98
2019-02-21T11:52:58.230Z,93.27
2019-02-21T11:54:08.207Z,93.55
2019-02-21T11:55:30.344Z,93.27
2019-02-21T11:56:39.802Z,92.32
2019-02-21T11:57:49.770Z,93.27
2019-02-21T11:58:59.749Z,93.65
2019-02-21T12:00:09.739Z,93.98
2019-02-21T12:01:19.704Z,93.22
2019-02-21T12:02:38.557Z,93.41
2019-02-21T12:03:48.544Z,93.79
2019-02-21T12:04:58.536Z,93.89
2019-02-21T12:06:19.966Z,92.74
2019-02-21T12:07:29.661Z,93.79
2019-02-21T12:08:39.607Z,92.18
2019-02-21T12:09:49.637Z,92.65
2019-02-21T12:10:59.607Z,93.55
2019-02-21T12:12:10.416Z,92.84
2019-02-21T12:13:20.046Z,92.74
2019-02-21T12:14:29.838Z,91.6
2019-02-21T12:15:39.284Z,92.55
2019-02-21T12:16:49.255Z,92.32
2019-02-21T12:17:59.243Z,92.27
2019-02-21T12:19:09.211Z,92.94
2019-02-21T12:20:18.919Z,92.94
2019-02-21T12:21:28.678Z,92.74
2019-02-21T12:22:38.654Z,91.6
2019-02-21T12:23:48.368Z,91.89
2019-02-21T12:24:58.333Z,91.74
2019-02-21T12:26:08.032Z,90.98
2019-02-21T12:27:18.044Z,90.41
2019-02-21T12:28:27.850Z,91.08
2019-02-21T12:29:37.805Z,90.31
2019-02-21T12:30:47.802Z,91.08
2019-02-21T12:31:57.511Z,91.94
2019-02-21T12:33:07.493Z,91.27
2019-02-21T12:34:17.510Z,90.98
2019-02-21T12:35:32.259Z,90.31
2019-02-21T12:36:42.222Z,90.22
2019-02-21T12:37:52.176Z,90.5
2019-02-21T12:39:02.140Z,90.79
2019-02-21T12:40:11.866Z,91.46
2019-02-21T12:41:22.133Z,91.94
2019-02-21T12:42:32.106Z,90.5
2019-02-21T12:43:42.056Z,90.7
2019-02-21T12:44:52.075Z,89.46
2019-02-21T12:46:02.072Z,89.65
2019-02-21T12:47:12.057Z,91.27
2019-02-21T12:48:21.759Z,90.7
2019-02-21T12:49:32.701Z,90.7
2019-02-21T12:50:46.765Z,91.17
2019-02-21T12:51:57.529Z,90.31
2019-02-21T12:53:07.578Z,90.12
2019-02-21T12:54:17.552Z,90.6
2019-02-21T12:55:34.104Z,91.17
2019-02-21T12:56:43.802Z,90.7
2019-02-21T12:57:53.764Z,90.41
2019-02-21T12:59:03.521Z,89.94
2019-02-21T13:00:13.501Z,89.94
2019-02-21T13:01:23.016Z,90.41
2019-02-21T13:02:32.750Z,91.46
2019-02-21T13:03:42.734Z,91.36
2019-02-21T13:04:52.669Z,90.6
2019-02-21T13:06:02.107Z,91.51
2019-02-21T13:07:11.584Z,91.03
2019-02-21T13:08:21.538Z,91.7
2019-02-21T13:09:31.229Z,90.27
2019-02-21T13:10:40.694Z,91.31
2019-02-21T13:11:50.658Z,91.7
2019-02-21T13:13:00.632Z,91.41
2019-02-21T13:14:10.591Z,91.7
2019-02-21T13:15:20.042Z,90.56
2019-02-21T13:16:30.094Z,90.84
2019-02-21T13:17:40.040Z,91.51
2019-02-21T13:18:49.877Z,91.51
2019-02-21T13:19:59.868Z,91.51
2019-02-21T13:21:09.599Z,91.79
2019-02-21T13:22:19.676Z,90.94
2019-02-21T13:23:29.384Z,90.84
2019-02-21T13:24:39.353Z,90.27
2019-02-21T13:25:49.048Z,91.41
2019-02-21T13:26:59.010Z,90.75
2019-02-21T13:28:08.967Z,90.65
2019-02-21T13:29:18.666Z,90.17
2019-02-21T13:30:28.611Z,90.36
2019-02-21T13:31:38.330Z,91.46
2019-02-21T13:32:48.328Z,90.46
2019-02-21T13:33:58.302Z,90.5
2019-02-21T13:35:08.286Z,89.36
2019-02-21T13:36:18.261Z,90.12
2019-02-21T13:37:31.164Z,89.36
2019-02-21T13:38:40.406Z,89.55
2019-02-21T13:39:50.363Z,88.89
2019-02-21T13:40:59.822Z,88.98
2019-02-21T13:42:09.542Z,89.75
2019-02-21T13:43:19.260Z,90.12
2019-02-21T13:44:29.257Z,88.98
2019-02-21T13:45:39.051Z,89.55
2019-02-21T13:46:49.060Z,89.07
2019-02-21T13:47:59.023Z,89.84
2019-02-21T13:49:08.997Z,89.65
2019-02-21T13:50:18.966Z,90.03
2019-02-21T13:51:31.097Z,89.07
2019-02-21T13:52:41.037Z,89.17
2019-02-21T13:53:52.287Z,89.26
2019-02-21T13:55:02.401Z,88.79
2019-02-21T13:56:12.370Z,88.7
2019-02-21T13:57:22.082Z,89.75
2019-02-21T13:58:32.064Z,88.7
2019-02-21T13:59:42.035Z,90.22
2019-02-21T14:00:51.731Z,89.55
2019-02-21T14:02:01.184Z,90.12
2019-02-21T14:03:11.140Z,90.03
2019-02-21T14:04:21.186Z,89.84
2019-02-21T14:05:31.263Z,89.65
2019-02-21T14:06:40.692Z,90.22
2019-02-21T14:07:50.650Z,89.94
2019-02-21T14:09:00.603Z,90.12
2019-02-21T14:10:10.545Z,89.75
2019-02-21T14:11:20.278Z,90.03
2019-02-21T14:12:30.244Z,90.03
2019-02-21T14:13:40.021Z,89.46
2019-02-21T14:14:50.025Z,88.89
2019-02-21T14:15:59.618Z,88.98
2019-02-21T14:17:09.328Z,90.6
2019-02-21T14:18:20.403Z,89.94
2019-02-21T14:19:31.933Z,90.03
2019-02-21T14:20:47.852Z,89.84
2019-02-21T14:21:57.818Z,89.94
2019-02-21T14:23:07.782Z,89.36
2019-02-21T14:24:17.756Z,90.41
2019-02-21T14:25:43.396Z,90.6
2019-02-21T14:26:53.345Z,91.17
2019-02-21T14:28:03.467Z,91.27
2019-02-21T14:29:13.425Z,92.5
2019-02-21T14:30:23.389Z,92.69
2019-02-21T14:31:35.957Z,94.46
2019-02-21T14:32:45.878Z,94.93
2019-02-21T14:33:55.839Z,95.79
2019-02-21T14:35:06.402Z,96.55
2019-02-21T14:36:20.535Z,97.13
2019-02-21T14:37:30.507Z,98.18
2019-02-21T14:38:40.382Z,98.74
2019-02-21T14:39:50.146Z,99.32
2019-02-21T14:41:00.105Z,99.46
2019-02-21T14:42:10.118Z,99.08
2019-02-21T14:43:19.882Z,99.36
2019-02-21T14:44:29.857Z,99.99
2019-02-21T14:45:39.573Z,99.99
2019-02-21T14:46:50.313Z,99.99
2019-02-21T14:48:00.392Z,99.99
2019-02-21T14:49:10.211Z,99.99
2019-02-21T14:50:20.167Z,99.99
2019-02-21T14:51:29.594Z,99.99
2019-02-21T14:52:39.531Z,99.99
2019-02-21T14:53:49.207Z,99.99
2019-02-21T14:54:58.906Z,99.99
2019-02-21T14:56:09.102Z,99.99
2019-02-21T14:57:19.046Z,99.99
2019-02-21T14:58:28.756Z,99.99
2019-02-21T14:59:38.513Z,99.99
2019-02-21T15:00:50.045Z,99.99
2019-02-21T15:01:59.777Z,99.99
2019-02-21T15:03:21.168Z,99.99
2019-02-21T15:04:31.555Z,99.99
2019-02-21T15:05:43.358Z,99.99
2019-02-21T15:06:52.809Z,99.99
2019-02-21T15:08:02.520Z,99.99
2019-02-21T15:09:12.219Z,99.99